createdAt,value
2023-09-03T00:03:19.423Z,15.17
2023-09-03T00:08:24.757Z,15.07
2023-09-03T00:13:28.191Z,15.16
2023-09-03T00:18:31.548Z,15.06
2023-09-03T00:23:36.222Z,15.21
2023-09-03T00:28:39.507Z,15.25
2023-09-03T00:33:42.679Z,15.17
2023-09-03T00:38:50.535Z,14.97
2023-09-03T00:43:53.789Z,14.98
2023-09-03T00:48:57.154Z,14.81
2023-09-03T00:54:03.545Z,14.94
2023-09-03T00:59:07.681Z,14.90
2023-09-03T01:04:11.279Z,14.91
2023-09-03T01:09:16.120Z,14.90
2023-09-03T01:14:26.895Z,14.83
2023-09-03T01:19:55.200Z,14.83
2023-09-03T01:25:13.233Z,14.76
2023-09-03T01:30:18.525Z,14.69
2023-09-03T01:35:21.843Z,14.58
2023-09-03T01:40:25.295Z,14.57
2023-09-03T01:45:36.801Z,14.53
2023-09-03T01:50:44.576Z,14.47
2023-09-03T01:55:53.657Z,14.42
2023-09-03T02:00:58.678Z,14.39
2023-09-03T02:06:02.279Z,14.36
2023-09-03T02:11:05.552Z,14.18
2023-09-03T02:16:10.685Z,14.14
2023-09-03T02:21:14.186Z,14.26
2023-09-03T02:26:17.514Z,14.14
2023-09-03T02:31:22.146Z,14.17
2023-09-03T02:36:25.422Z,14.16
2023-09-03T02:41:28.910Z,14.18
2023-09-03T02:46:33.479Z,14.08
2023-09-03T02:51:36.789Z,14.11
2023-09-03T02:56:40.026Z,14.12
2023-09-03T03:01:44.763Z,13.94
2023-09-03T03:06:48.145Z,14.11
2023-09-03T03:11:51.425Z,14.21
2023-09-03T03:16:56.762Z,14.23
2023-09-03T03:22:00.269Z,13.99
2023-09-03T03:27:03.686Z,14.35
2023-09-03T03:32:09.089Z,14.20
2023-09-03T03:37:15.869Z,14.33
2023-09-03T03:42:19.466Z,14.46
2023-09-03T03:47:24.132Z,14.37
2023-09-03T03:52:27.390Z,14.28
2023-09-03T03:57:30.513Z,14.54
2023-09-03T04:02:35.094Z,14.55
2023-09-03T04:07:38.708Z,14.51
2023-09-03T04:12:42.083Z,14.60
2023-09-03T04:17:48.601Z,14.63
2023-09-03T04:22:57.178Z,14.68
2023-09-03T04:28:01.174Z,14.67
2023-09-03T04:33:07.484Z,14.66
2023-09-03T04:38:14.968Z,14.79
2023-09-03T04:43:20.494Z,14.77
2023-09-03T04:48:25.603Z,14.79
2023-09-03T04:53:29.857Z,14.89
2023-09-03T04:58:33.304Z,14.87
2023-09-03T05:03:38.628Z,14.87
2023-09-03T05:08:42.193Z,14.95
2023-09-03T05:13:45.480Z,15.07
2023-09-03T05:18:51.569Z,15.17
2023-09-03T05:23:56.216Z,15.24
2023-09-03T05:28:59.359Z,15.42
2023-09-03T05:34:04.085Z,15.70
2023-09-03T05:39:07.662Z,15.83
2023-09-03T05:44:11.305Z,15.98
2023-09-03T05:49:18.325Z,16.26
2023-09-03T05:54:21.882Z,16.24
2023-09-03T05:59:25.236Z,16.52
2023-09-03T06:04:29.870Z,16.46
2023-09-03T06:09:33.245Z,16.62
2023-09-03T06:14:38.865Z,16.62
2023-09-03T06:19:49.582Z,16.79
2023-09-03T06:24:53.181Z,16.82
2023-09-03T06:29:56.307Z,16.92
2023-09-03T06:35:01.433Z,17.18
2023-09-03T06:40:05.077Z,17.22
2023-09-03T06:45:09.752Z,16.79
2023-09-03T06:50:14.532Z,16.82
2023-09-03T06:55:19.328Z,17.04
2023-09-03T07:00:22.991Z,17.03
2023-09-03T07:05:27.623Z,16.93
2023-09-03T07:10:30.884Z,17.24
2023-09-03T07:15:34.657Z,17.17
2023-09-03T07:20:39.372Z,17.20
2023-09-03T07:25:42.898Z,17.25
2023-09-03T07:30:46.217Z,17.26
2023-09-03T07:35:51.171Z,17.25
2023-09-03T07:40:54.420Z,17.53
2023-09-03T07:45:57.685Z,17.63
2023-09-03T07:51:02.341Z,17.62
2023-09-03T07:56:06.022Z,18.03
2023-09-03T08:01:11.984Z,17.80
2023-09-03T08:06:16.708Z,18.15
2023-09-03T08:11:20.232Z,18.62
2023-09-03T08:16:23.569Z,19.25
2023-09-03T08:21:28.438Z,19.28
2023-09-03T08:26:31.850Z,19.34
2023-09-03T08:31:35.392Z,18.79
2023-09-03T08:36:40.043Z,19.38
2023-09-03T08:41:43.496Z,19.89
2023-09-03T08:46:48.782Z,19.30
2023-09-03T08:51:53.640Z,20.40
2023-09-03T08:56:58.290Z,20.93
2023-09-03T09:02:02.317Z,20.48
2023-09-03T09:07:07.261Z,19.35
2023-09-03T09:12:15.088Z,19.51
2023-09-03T09:17:18.593Z,20.04
2023-09-03T09:22:25.468Z,21.12
2023-09-03T09:27:29.965Z,20.57
2023-09-03T09:32:33.358Z,20.00
2023-09-03T09:37:41.735Z,19.79
2023-09-03T09:42:54.271Z,20.06
2023-09-03T09:48:07.770Z,20.46
2023-09-03T09:53:24.293Z,20.32
2023-09-03T09:58:37.492Z,21.29
2023-09-03T10:03:43.824Z,22.57
2023-09-03T10:08:51.949Z,22.34
2023-09-03T10:13:57.668Z,21.60
2023-09-03T10:19:04.084Z,21.06
2023-09-03T10:24:09.995Z,21.11
2023-09-03T10:29:15.048Z,22.09
2023-09-03T10:34:18.424Z,21.94
2023-09-03T10:39:27.197Z,23.33
2023-09-03T10:44:34.682Z,22.44
2023-09-03T10:49:45.130Z,22.33
2023-09-03T10:55:17.079Z,21.96
2023-09-03T11:00:25.594Z,22.24
2023-09-03T11:05:29.624Z,22.15
2023-09-03T11:10:46.428Z,22.10
2023-09-03T11:15:52.841Z,22.27
2023-09-03T11:20:57.209Z,23.03
2023-09-03T11:26:03.862Z,22.64
2023-09-03T11:31:07.679Z,22.71
2023-09-03T11:36:11.034Z,22.78
2023-09-03T11:41:18.199Z,22.60
2023-09-03T11:46:21.666Z,23.02
2023-09-03T11:51:29.506Z,23.09
2023-09-03T11:56:34.681Z,22.63
2023-09-03T12:01:38.050Z,23.00
2023-09-03T12:06:41.410Z,22.43
2023-09-03T12:11:46.218Z,23.21
2023-09-03T12:16:49.841Z,22.91
2023-09-03T12:21:53.578Z,23.09
2023-09-03T12:27:04.778Z,22.93
2023-09-03T12:32:09.332Z,23.26
2023-09-03T12:37:12.580Z,23.29
2023-09-03T12:42:18.694Z,23.00
2023-09-03T12:47:22.634Z,22.44
2023-09-03T12:52:25.984Z,22.61
2023-09-03T12:57:30.891Z,22.55
2023-09-03T13:02:35.229Z,22.43
2023-09-03T13:07:38.642Z,22.72
2023-09-03T13:12:43.386Z,22.77
2023-09-03T13:17:49.701Z,22.95
2023-09-03T13:22:53.083Z,22.53
2023-09-03T13:27:57.936Z,23.12
2023-09-03T13:33:02.969Z,22.89
2023-09-03T13:38:06.494Z,22.62
2023-09-03T13:43:10.994Z,23.14
2023-09-03T13:48:14.364Z,23.08
2023-09-03T13:53:17.729Z,22.99
2023-09-03T13:58:22.630Z,23.15
2023-09-03T14:03:26.252Z,22.18
2023-09-03T14:08:29.475Z,22.51
2023-09-03T14:13:34.420Z,21.87
2023-09-03T14:18:37.944Z,22.42
2023-09-03T14:23:41.129Z,22.29
2023-09-03T14:28:45.815Z,22.32
2023-09-03T14:33:49.683Z,22.25
2023-09-03T14:38:53.345Z,22.14
2023-09-03T14:43:58.050Z,22.50
2023-09-03T14:49:01.484Z,22.33
2023-09-03T14:54:06.080Z,22.16
2023-09-03T14:59:10.806Z,22.22
2023-09-03T15:04:13.954Z,22.31
2023-09-03T15:09:17.954Z,21.88
2023-09-03T15:14:22.691Z,21.94
2023-09-03T15:19:25.997Z,22.27
2023-09-03T15:24:30.766Z,21.85
2023-09-03T15:29:37.034Z,21.48
2023-09-03T15:34:40.169Z,21.29
2023-09-03T15:39:43.289Z,20.97
2023-09-03T15:44:47.784Z,21.43
2023-09-03T15:49:50.936Z,21.09
2023-09-03T15:54:54.219Z,20.87
2023-09-03T15:59:58.772Z,21.20
2023-09-03T16:05:01.939Z,20.80
2023-09-03T16:10:05.818Z,21.01
2023-09-03T16:15:12.200Z,20.76
2023-09-03T16:20:15.749Z,20.48
2023-09-03T16:25:18.972Z,20.14
2023-09-03T16:30:23.600Z,20.35
2023-09-03T16:35:27.720Z,20.16
2023-09-03T16:40:31.943Z,20.16
2023-09-03T16:45:36.612Z,19.79
2023-09-03T16:50:40.908Z,19.50
2023-09-03T16:55:44.128Z,19.13
2023-09-03T17:00:48.697Z,18.85
2023-09-03T17:05:51.878Z,18.57
2023-09-03T17:10:55.153Z,18.06
2023-09-03T17:15:59.856Z,18.11
2023-09-03T17:21:03.998Z,18.00
2023-09-03T17:26:23.348Z,17.54
2023-09-03T17:31:31.363Z,17.55
2023-09-03T17:36:35.437Z,17.10
2023-09-03T17:41:38.744Z,16.96
2023-09-03T17:46:44.644Z,17.08
2023-09-03T17:51:48.673Z,16.52
2023-09-03T17:56:51.877Z,16.27
2023-09-03T18:01:56.565Z,16.45
2023-09-03T18:06:59.986Z,16.26
2023-09-03T18:12:05.587Z,16.23
2023-09-03T18:17:10.220Z,16.04
2023-09-03T18:22:13.489Z,15.79
2023-09-03T18:27:16.996Z,15.70
2023-09-03T18:32:21.746Z,15.37
2023-09-03T18:37:25.194Z,15.46
2023-09-03T18:42:28.760Z,15.08
2023-09-03T18:47:33.481Z,14.98
2023-09-03T18:52:36.826Z,15.05
2023-09-03T18:57:40.149Z,15.02
2023-09-03T19:02:45.142Z,14.92
2023-09-03T19:07:48.595Z,14.83
2023-09-03T19:12:54.357Z,14.84
2023-09-03T19:17:59.021Z,14.70
2023-09-03T19:23:04.901Z,14.64
2023-09-03T19:28:11.034Z,14.67
2023-09-03T19:33:19.103Z,14.58
2023-09-03T19:38:22.612Z,14.51
2023-09-03T19:43:26.243Z,14.15
2023-09-03T19:48:33.887Z,14.15
2023-09-03T19:53:37.454Z,14.21
2023-09-03T19:58:41.024Z,13.96
2023-09-03T20:03:46.440Z,14.12
2023-09-03T20:08:50.000Z,14.11
2023-09-03T20:13:55.923Z,14.12
2023-09-03T20:19:00.761Z,14.03
2023-09-03T20:24:04.694Z,13.92
2023-09-03T20:29:09.690Z,13.95
2023-09-03T20:34:14.588Z,13.78
2023-09-03T20:39:18.830Z,13.75
2023-09-03T20:44:22.993Z,13.72
2023-09-03T20:49:28.295Z,13.65
2023-09-03T20:54:34.409Z,13.58
2023-09-03T20:59:37.638Z,13.58
2023-09-03T21:04:42.167Z,13.45
2023-09-03T21:09:45.557Z,13.55
2023-09-03T21:14:48.767Z,13.40
2023-09-03T21:19:53.401Z,13.49
2023-09-03T21:24:56.680Z,13.38
2023-09-03T21:29:59.956Z,13.32
2023-09-03T21:35:17.935Z,13.26
2023-09-03T21:40:26.965Z,13.24
2023-09-03T21:45:30.521Z,13.18
2023-09-03T21:50:35.178Z,13.05
2023-09-03T21:55:38.658Z,13.00
2023-09-03T22:00:41.944Z,12.86
2023-09-03T22:05:47.246Z,12.72
2023-09-03T22:10:50.442Z,12.73
2023-09-03T22:15:53.752Z,12.56
2023-09-03T22:20:58.633Z,12.56
2023-09-03T22:26:02.360Z,12.52
2023-09-03T22:31:06.597Z,12.45
2023-09-03T22:36:11.201Z,12.33
2023-09-03T22:41:14.416Z,12.08
2023-09-03T22:46:17.605Z,12.17
2023-09-03T22:51:22.182Z,12.21
2023-09-03T22:56:25.537Z,12.16
2023-09-03T23:01:28.859Z,12.03
2023-09-03T23:06:33.754Z,12.00
2023-09-03T23:11:37.417Z,11.90
2023-09-03T23:16:40.910Z,11.77
2023-09-03T23:21:47.448Z,11.73
2023-09-03T23:26:50.627Z,11.67
2023-09-03T23:31:54.542Z,11.62
2023-09-03T23:36:59.113Z,11.56
2023-09-03T23:42:02.372Z,11.53
2023-09-03T23:47:13.265Z,11.50
2023-09-03T23:52:19.616Z,11.38
2023-09-03T23:57:22.972Z,11.30
